createdAt,value
2018-04-08T00:01:43.311Z,9.90
2018-04-08T00:04:14.522Z,10.53
2018-04-08T00:06:45.710Z,9.77
2018-04-08T00:09:17.763Z,10.80
2018-04-08T00:11:48.967Z,11.17
2018-04-08T00:14:20.188Z,10.00
2018-04-08T00:16:51.668Z,10.97
2018-04-08T00:19:22.883Z,9.33
2018-04-08T00:21:54.108Z,9.37
2018-04-08T00:24:25.332Z,8.47
2018-04-08T00:26:56.545Z,8.73
2018-04-08T00:29:27.888Z,9.33
2018-04-08T00:31:59.089Z,9.27
2018-04-08T00:34:30.313Z,8.90
2018-04-08T00:37:01.558Z,9.10
2018-04-08T00:39:32.863Z,9.77
2018-04-08T00:42:04.080Z,9.13
2018-04-08T00:44:35.301Z,8.97
2018-04-08T00:47:07.285Z,8.60
2018-04-08T00:49:38.575Z,9.47
2018-04-08T00:52:09.783Z,8.87
2018-04-08T00:54:40.986Z,9.23
2018-04-08T00:57:13.079Z,8.37
2018-04-08T00:59:44.279Z,8.30
2018-04-08T01:02:15.671Z,7.97
2018-04-08T01:04:46.860Z,9.40
2018-04-08T01:07:18.264Z,8.50
2018-04-08T01:09:49.521Z,8.93
2018-04-08T01:12:20.738Z,9.20
2018-04-08T01:14:51.920Z,8.20
2018-04-08T01:17:23.141Z,7.87
2018-04-08T01:19:54.320Z,8.57
2018-04-08T01:22:25.863Z,8.60
2018-04-08T01:24:57.049Z,8.60
2018-04-08T01:27:28.263Z,9.00
2018-04-08T01:30:14.436Z,8.23
2018-04-08T01:32:45.636Z,8.57
2018-04-08T01:35:17.646Z,8.23
2018-04-08T01:37:48.992Z,8.37
2018-04-08T01:40:20.234Z,7.67
2018-04-08T01:42:51.530Z,7.80
2018-04-08T01:45:23.515Z,8.27
2018-04-08T01:47:54.700Z,8.30
2018-04-08T01:50:26.305Z,8.60
2018-04-08T01:52:58.295Z,8.50
2018-04-08T01:55:29.525Z,7.40
2018-04-08T01:58:00.737Z,7.27
2018-04-08T02:00:31.963Z,8.57
2018-04-08T02:03:03.230Z,8.23
2018-04-08T02:05:35.180Z,7.57
2018-04-08T02:08:06.385Z,8.37
2018-04-08T02:10:37.615Z,7.97
2018-04-08T02:13:09.183Z,7.67
2018-04-08T02:15:40.367Z,8.47
2018-04-08T02:18:12.315Z,8.10
2018-04-08T02:20:43.552Z,7.93
2018-04-08T02:23:14.751Z,7.70
2018-04-08T02:25:45.985Z,8.13
2018-04-08T02:28:17.183Z,7.77
2018-04-08T02:30:48.517Z,7.57
2018-04-08T02:33:19.740Z,7.80
2018-04-08T02:35:50.984Z,7.13
2018-04-08T02:38:22.193Z,7.33
2018-04-08T02:40:54.146Z,6.80
2018-04-08T02:43:26.074Z,7.27
2018-04-08T02:45:57.280Z,8.23
2018-04-08T02:48:28.437Z,7.60
2018-04-08T02:50:59.755Z,8.17
2018-04-08T02:53:30.940Z,7.37
2018-04-08T02:56:02.165Z,7.60
2018-04-08T02:58:33.354Z,7.13
2018-04-08T03:01:04.852Z,7.70
2018-04-08T03:03:36.031Z,7.60
2018-04-08T03:06:07.281Z,7.50
2018-04-08T03:08:38.542Z,8.83
2018-04-08T03:11:09.826Z,8.20
2018-04-08T03:13:41.059Z,7.63
2018-04-08T03:16:12.244Z,7.50
2018-04-08T03:18:43.452Z,7.73
2018-04-08T03:21:14.656Z,7.43
2018-04-08T03:23:45.895Z,8.20
2018-04-08T03:26:17.063Z,7.73
2018-04-08T03:28:49.080Z,7.93
2018-04-08T03:31:20.428Z,8.30
2018-04-08T03:33:51.842Z,7.40
2018-04-08T03:36:23.075Z,8.33
2018-04-08T03:38:54.345Z,8.20
2018-04-08T03:41:25.583Z,9.03
2018-04-08T03:43:56.792Z,7.97
2018-04-08T03:46:28.746Z,8.30
2018-04-08T03:49:00.140Z,9.87
2018-04-08T03:51:31.398Z,8.23
2018-04-08T03:54:02.644Z,9.63
2018-04-08T03:56:33.846Z,9.40
2018-04-08T03:59:05.829Z,8.73
2018-04-08T04:01:37.047Z,9.40
2018-04-08T04:04:08.627Z,8.90
2018-04-08T04:06:40.679Z,9.00
2018-04-08T04:09:12.240Z,9.50
2018-04-08T04:11:43.569Z,8.03
2018-04-08T04:14:14.832Z,8.47
2018-04-08T04:16:46.088Z,9.37
2018-04-08T04:19:29.540Z,9.00
2018-04-08T04:22:13.310Z,8.43
2018-04-08T04:25:01.616Z,10.13
2018-04-08T04:27:32.810Z,8.90
2018-04-08T04:30:04.886Z,10.13
2018-04-08T04:32:36.864Z,9.50
2018-04-08T04:35:08.100Z,10.03
2018-04-08T04:37:39.338Z,9.60
2018-04-08T04:40:10.559Z,8.73
2018-04-08T04:42:42.526Z,9.33
2018-04-08T04:45:14.489Z,10.17
2018-04-08T04:47:46.499Z,9.40
2018-04-08T04:50:17.725Z,9.30
2018-04-08T04:52:49.008Z,9.67
2018-04-08T04:55:20.212Z,10.03
2018-04-08T04:57:51.460Z,9.80
2018-04-08T05:00:22.687Z,9.43
2018-04-08T05:02:53.900Z,10.00
2018-04-08T05:05:25.883Z,9.73
2018-04-08T05:07:57.876Z,9.47
2018-04-08T05:10:29.088Z,10.17
2018-04-08T05:13:00.369Z,10.43
2018-04-08T05:15:32.134Z,9.73
2018-04-08T05:18:03.454Z,9.03
2018-04-08T05:20:34.717Z,10.67
2018-04-08T05:23:06.054Z,10.77
2018-04-08T05:25:37.248Z,9.63
2018-04-08T05:28:08.496Z,10.67
2018-04-08T05:30:39.676Z,9.50
2018-04-08T05:33:10.976Z,9.50
2018-04-08T05:35:42.164Z,9.70
2018-04-08T05:38:13.648Z,10.60
2018-04-08T05:40:44.855Z,10.50
2018-04-08T05:43:16.088Z,10.20
2018-04-08T05:45:47.320Z,11.00
2018-04-08T05:48:19.253Z,9.47
2018-04-08T05:50:50.464Z,9.70
2018-04-08T05:53:23.044Z,10.20
2018-04-08T05:55:54.284Z,10.23
2018-04-08T05:58:25.478Z,10.07
2018-04-08T06:00:57.485Z,10.00
2018-04-08T06:03:28.739Z,11.43
2018-04-08T06:05:59.941Z,10.17
2018-04-08T06:08:32.156Z,10.53
2018-04-08T06:11:03.378Z,10.33
2018-04-08T06:13:34.631Z,9.83
2018-04-08T06:16:06.018Z,11.00
2018-04-08T06:18:37.200Z,9.93
2018-04-08T06:21:08.453Z,11.13
2018-04-08T06:23:39.741Z,10.33
2018-04-08T06:26:10.911Z,10.40
2018-04-08T06:28:42.163Z,9.73
2018-04-08T06:31:13.382Z,9.47
2018-04-08T06:33:44.652Z,10.00
2018-04-08T06:36:15.924Z,9.67
2018-04-08T06:38:47.164Z,10.07
2018-04-08T06:41:18.429Z,10.17
2018-04-08T06:43:49.931Z,9.70
2018-04-08T06:46:21.164Z,9.97
2018-04-08T06:48:52.424Z,9.17
2018-04-08T06:51:24.390Z,10.73
2018-04-08T06:53:55.711Z,10.20
2018-04-08T06:56:26.908Z,10.43
2018-04-08T06:58:58.165Z,10.00
2018-04-08T07:01:29.391Z,9.90
2018-04-08T07:04:00.836Z,9.97
2018-04-08T07:06:32.079Z,8.73
2018-04-08T07:09:03.352Z,9.37
2018-04-08T07:11:34.539Z,10.03
2018-04-08T07:14:05.893Z,9.50
2018-04-08T07:16:37.160Z,9.47
2018-04-08T07:19:08.457Z,9.70
2018-04-08T07:21:39.805Z,9.83
2018-04-08T07:24:11.045Z,8.97
2018-04-08T07:26:42.326Z,9.43
2018-04-08T07:29:13.694Z,10.20
2018-04-08T07:31:44.895Z,9.90
2018-04-08T07:34:16.232Z,9.80
2018-04-08T07:36:47.413Z,10.30
2018-04-08T07:39:18.682Z,8.87
2018-04-08T07:41:49.871Z,9.47
2018-04-08T07:44:21.091Z,9.90
2018-04-08T07:46:52.661Z,9.00
2018-04-08T07:49:23.919Z,9.33
2018-04-08T07:51:56.002Z,9.23
2018-04-08T07:54:28.575Z,8.83
2018-04-08T07:57:00.602Z,9.30
2018-04-08T07:59:31.858Z,8.70
2018-04-08T08:02:03.066Z,10.30
2018-04-08T08:04:34.625Z,9.83
2018-04-08T08:07:06.818Z,10.27
2018-04-08T08:09:39.161Z,10.37
2018-04-08T08:12:10.351Z,8.77
2018-04-08T08:14:42.399Z,10.03
2018-04-08T08:17:14.541Z,10.10
2018-04-08T08:19:45.843Z,10.30
2018-04-08T08:22:17.088Z,9.80
2018-04-08T08:24:48.310Z,9.60
2018-04-08T08:27:20.381Z,10.30
2018-04-08T08:29:52.402Z,9.43
2018-04-08T08:32:25.394Z,9.67
2018-04-08T08:34:56.753Z,8.93
2018-04-08T08:37:28.705Z,9.30
2018-04-08T08:39:59.947Z,9.00
2018-04-08T08:42:31.186Z,9.07
2018-04-08T08:45:02.395Z,9.73
2018-04-08T08:47:33.665Z,9.37
2018-04-08T08:50:04.873Z,10.40
2018-04-08T08:52:36.124Z,10.23
2018-04-08T08:55:07.464Z,10.17
2018-04-08T08:57:39.693Z,9.10
2018-04-08T09:00:11.637Z,9.33
2018-04-08T09:02:42.881Z,9.77
2018-04-08T09:05:14.088Z,9.80
2018-04-08T09:07:45.296Z,8.80
2018-04-08T09:10:17.671Z,9.50
2018-04-08T09:12:48.879Z,9.67
2018-04-08T09:15:20.119Z,8.60
2018-04-08T09:17:51.340Z,9.00
2018-04-08T09:20:27.496Z,9.40
2018-04-08T09:23:15.688Z,9.13
2018-04-08T09:25:48.808Z,8.60
2018-04-08T09:28:20.408Z,8.93
2018-04-08T09:30:51.613Z,9.30
2018-04-08T09:33:22.894Z,8.10
2018-04-08T09:35:54.117Z,8.73
2018-04-08T09:38:25.334Z,8.53
2018-04-08T09:40:56.580Z,9.03
2018-04-08T09:43:28.555Z,9.30
2018-04-08T09:45:59.842Z,8.27
2018-04-08T09:48:31.137Z,8.63
2018-04-08T09:51:03.142Z,8.27
2018-04-08T09:53:34.406Z,8.47
2018-04-08T09:56:05.945Z,9.00
2018-04-08T09:58:37.181Z,8.93
2018-04-08T10:01:26.309Z,8.23
2018-04-08T10:03:57.559Z,8.23
2018-04-08T10:06:29.012Z,8.03
2018-04-08T10:09:00.252Z,8.27
2018-04-08T10:11:31.516Z,8.27
2018-04-08T10:14:02.753Z,8.17
2018-04-08T10:16:34.055Z,9.27
2018-04-08T10:19:05.291Z,8.23
2018-04-08T10:21:36.554Z,8.47
2018-04-08T10:24:08.584Z,7.40
2018-04-08T10:26:39.822Z,8.40
2018-04-08T10:29:11.154Z,7.53
2018-04-08T10:31:43.104Z,7.70
2018-04-08T10:34:14.324Z,8.07
2018-04-08T10:36:47.540Z,7.97
2018-04-08T10:39:18.802Z,7.73
2018-04-08T10:41:50.044Z,7.37
2018-04-08T10:44:21.271Z,7.80
2018-04-08T10:46:52.510Z,7.50
2018-04-08T10:49:23.784Z,7.23
2018-04-08T10:51:55.228Z,7.30
2018-04-08T10:54:26.449Z,7.50
2018-04-08T10:56:57.738Z,7.60
2018-04-08T10:59:28.990Z,6.67
2018-04-08T11:02:00.257Z,7.03
2018-04-08T11:04:31.541Z,7.40
2018-04-08T11:07:02.802Z,7.53
2018-04-08T11:09:34.040Z,7.57
2018-04-08T11:12:05.253Z,7.33
2018-04-08T11:14:36.484Z,7.13
2018-04-08T11:17:08.500Z,7.97
2018-04-08T11:19:39.719Z,6.77
2018-04-08T11:22:10.953Z,6.17
2018-04-08T11:24:42.189Z,7.40
2018-04-08T11:27:13.400Z,7.80
2018-04-08T11:29:44.637Z,8.20
2018-04-08T11:32:15.937Z,6.70
2018-04-08T11:34:47.131Z,7.37
2018-04-08T11:37:18.404Z,6.93
2018-04-08T11:39:50.372Z,6.73
2018-04-08T11:42:22.349Z,7.10
2018-04-08T11:44:54.335Z,7.93
2018-04-08T11:47:25.556Z,8.00
2018-04-08T11:49:56.852Z,9.90
2018-04-08T11:52:28.059Z,8.53
2018-04-08T11:54:59.349Z,7.20
2018-04-08T11:57:31.352Z,7.43
2018-04-08T12:00:02.627Z,7.60
2018-04-08T12:02:33.808Z,7.00
2018-04-08T12:05:05.782Z,7.67
2018-04-08T12:07:37.040Z,8.17
2018-04-08T12:10:08.259Z,7.13
2018-04-08T12:12:40.261Z,7.33
2018-04-08T12:15:11.519Z,6.63
2018-04-08T12:17:42.857Z,7.10
2018-04-08T12:20:14.086Z,7.00
2018-04-08T12:22:45.330Z,7.50
2018-04-08T12:25:16.623Z,6.77
2018-04-08T12:27:48.634Z,7.20
2018-04-08T12:30:20.164Z,6.60
2018-04-08T12:32:52.156Z,7.37
2018-04-08T12:35:23.369Z,8.10
2018-04-08T12:37:55.428Z,7.90
2018-04-08T12:40:27.394Z,6.97
2018-04-08T12:42:58.638Z,7.17
2018-04-08T12:45:29.839Z,7.30
2018-04-08T12:48:01.151Z,7.73
2018-04-08T12:50:32.377Z,7.20
2018-04-08T12:53:03.625Z,6.67
2018-04-08T12:55:34.851Z,7.77
2018-04-08T12:58:06.901Z,7.83
2018-04-08T13:00:38.337Z,8.60
2018-04-08T13:03:09.872Z,8.40
2018-04-08T13:05:41.081Z,8.47
2018-04-08T13:08:12.320Z,7.20
2018-04-08T13:10:43.551Z,7.40
2018-04-08T13:13:14.821Z,7.37
2018-04-08T13:15:46.273Z,7.87
2018-04-08T13:18:17.574Z,8.67
2018-04-08T13:20:48.765Z,8.00
2018-04-08T13:23:20.005Z,8.43
2018-04-08T13:25:51.210Z,7.90
2018-04-08T13:28:23.208Z,8.00
2018-04-08T13:30:54.429Z,7.43
2018-04-08T13:33:25.700Z,7.40
2018-04-08T13:35:56.905Z,7.67
2018-04-08T13:38:28.303Z,6.87
2018-04-08T13:40:59.543Z,7.90
2018-04-08T13:43:30.775Z,8.90
2018-04-08T13:46:02.021Z,8.73
2018-04-08T13:48:33.188Z,8.00
2018-04-08T13:51:04.461Z,7.53
2018-04-08T13:53:35.718Z,8.33
2018-04-08T13:56:06.932Z,9.43
2018-04-08T13:58:38.366Z,9.40
2018-04-08T14:01:09.548Z,8.13
2018-04-08T14:03:40.957Z,10.83
2018-04-08T14:06:12.141Z,9.70
2018-04-08T14:08:43.782Z,9.30
2018-04-08T14:11:14.961Z,8.10
2018-04-08T14:13:46.896Z,8.80
2018-04-08T14:16:18.144Z,8.43
2018-04-08T14:18:50.150Z,7.80
2018-04-08T14:21:21.407Z,7.70
2018-04-08T14:23:52.624Z,8.27
2018-04-08T14:26:24.644Z,8.20
2018-04-08T14:28:56.645Z,8.73
2018-04-08T14:31:28.729Z,7.93
2018-04-08T14:33:59.969Z,8.20
2018-04-08T14:36:31.183Z,10.07
2018-04-08T14:39:02.561Z,10.93
2018-04-08T14:41:33.816Z,10.33
2018-04-08T14:44:05.024Z,9.47
2018-04-08T14:46:37.027Z,9.00
2018-04-08T14:49:08.257Z,9.27
2018-04-08T14:51:39.503Z,8.83
2018-04-08T14:54:10.742Z,9.07
2018-04-08T14:56:41.985Z,12.30
2018-04-08T14:59:13.288Z,10.30
2018-04-08T15:01:46.797Z,10.60
2018-04-08T15:04:16.485Z,9.27
2018-04-08T15:06:47.723Z,9.43
2018-04-08T15:09:18.920Z,9.30
2018-04-08T15:11:50.171Z,11.20
2018-04-08T15:14:21.522Z,9.80
2018-04-08T15:16:52.805Z,10.57
2018-04-08T15:19:24.040Z,10.03
2018-04-08T15:21:55.635Z,9.67
2018-04-08T15:24:27.671Z,10.00
2018-04-08T15:26:58.942Z,11.37
2018-04-08T15:29:30.897Z,11.83
2018-04-08T15:32:02.184Z,10.13
2018-04-08T15:34:33.372Z,10.60
2018-04-08T15:37:04.831Z,10.23
2018-04-08T15:39:36.124Z,11.03
2018-04-08T15:42:07.421Z,11.23
2018-04-08T15:44:38.595Z,9.73
2018-04-08T15:47:09.856Z,10.90
2018-04-08T15:49:41.113Z,11.10
2018-04-08T15:52:12.330Z,11.53
2018-04-08T15:54:43.602Z,11.40
2018-04-08T15:57:14.779Z,12.40
2018-04-08T15:59:46.119Z,11.07
2018-04-08T16:02:17.396Z,11.70
2018-04-08T16:04:49.337Z,19.60
2018-04-08T16:07:20.605Z,15.47
2018-04-08T16:09:52.555Z,14.37
2018-04-08T16:12:24.524Z,12.53
2018-04-08T16:14:56.460Z,11.40
2018-04-08T16:17:28.777Z,10.77
2018-04-08T16:20:00.050Z,11.03
2018-04-08T16:22:31.513Z,11.80
2018-04-08T16:25:02.949Z,12.17
2018-04-08T16:27:34.192Z,11.27
2018-04-08T16:30:05.467Z,10.87
2018-04-08T16:32:36.728Z,11.23
2018-04-08T16:35:07.998Z,20.17
2018-04-08T16:37:39.176Z,20.87
2018-04-08T16:40:10.461Z,17.57
2018-04-08T16:42:42.518Z,18.13
2018-04-08T16:45:14.443Z,17.50
2018-04-08T16:47:45.681Z,16.07
2018-04-08T16:50:17.135Z,14.00
2018-04-08T16:52:48.334Z,14.07
2018-04-08T16:55:20.396Z,13.87
2018-04-08T16:57:52.400Z,13.50
2018-04-08T17:00:23.660Z,16.97
2018-04-08T17:02:54.981Z,21.10
2018-04-08T17:05:26.189Z,20.50
2018-04-08T17:07:58.176Z,19.83
2018-04-08T17:10:29.341Z,17.23
2018-04-08T17:13:00.603Z,16.57
2018-04-08T17:15:31.764Z,16.40
2018-04-08T17:18:03.019Z,14.40
2018-04-08T17:20:35.862Z,16.03
2018-04-08T17:23:07.125Z,18.33
2018-04-08T17:25:38.368Z,18.70
2018-04-08T17:28:09.692Z,17.17
2018-04-08T17:30:40.889Z,18.80
2018-04-08T17:33:13.093Z,16.83
2018-04-08T17:35:44.322Z,19.60
2018-04-08T17:38:15.530Z,20.93
2018-04-08T17:40:47.549Z,22.33
2018-04-08T17:43:18.836Z,26.73
2018-04-08T17:45:50.019Z,22.70
2018-04-08T17:48:21.246Z,24.13
2018-04-08T17:50:53.250Z,18.10
2018-04-08T17:53:24.505Z,16.20
2018-04-08T17:55:55.707Z,15.10
2018-04-08T17:58:27.059Z,18.50
2018-04-08T18:00:58.487Z,18.13
2018-04-08T18:03:30.113Z,17.73
2018-04-08T18:06:01.340Z,19.63
2018-04-08T18:08:32.633Z,23.13
2018-04-08T18:11:03.853Z,21.87
2018-04-08T18:13:35.134Z,18.43
2018-04-08T18:16:07.118Z,18.90
2018-04-08T18:18:38.340Z,19.40
2018-04-08T18:21:09.639Z,20.30
2018-04-08T18:23:41.172Z,20.60
2018-04-08T18:26:12.376Z,19.93
2018-04-08T18:28:43.616Z,20.60
2018-04-08T18:31:14.840Z,19.93
2018-04-08T18:33:46.873Z,20.20
2018-04-08T18:36:18.097Z,20.27
2018-04-08T18:38:49.348Z,20.07
2018-04-08T18:41:20.569Z,19.77
2018-04-08T18:43:52.047Z,19.63
2018-04-08T18:46:23.251Z,19.83
2018-04-08T18:48:54.487Z,20.60
2018-04-08T18:51:25.778Z,19.07
2018-04-08T18:53:56.997Z,20.53
2018-04-08T18:56:28.912Z,21.07
2018-04-08T18:59:00.158Z,20.10
2018-04-08T19:01:31.454Z,20.67
2018-04-08T19:04:03.004Z,21.00
2018-04-08T19:06:34.752Z,20.40
2018-04-08T19:09:05.976Z,21.57
2018-04-08T19:11:37.972Z,19.23
2018-04-08T19:14:09.222Z,21.00
2018-04-08T19:16:40.432Z,19.80
2018-04-08T19:19:12.409Z,18.87
2018-04-08T19:21:43.777Z,20.53
2018-04-08T19:24:15.050Z,19.77
2018-04-08T19:26:46.249Z,20.33
2018-04-08T19:29:17.501Z,22.90
2018-04-08T19:31:48.806Z,22.63
2018-04-08T19:34:20.210Z,22.73
2018-04-08T19:36:51.367Z,22.80
2018-04-08T19:39:22.602Z,21.40
2018-04-08T19:41:53.904Z,22.40
2018-04-08T19:44:25.128Z,23.63
2018-04-08T19:46:57.162Z,21.70
2018-04-08T19:49:28.414Z,22.57
2018-04-08T19:51:59.624Z,22.90
2018-04-08T19:54:30.899Z,22.60
2018-04-08T19:57:02.101Z,23.53
2018-04-08T19:59:33.338Z,21.60
2018-04-08T20:02:04.691Z,22.53
2018-04-08T20:04:35.960Z,23.20
2018-04-08T20:07:07.186Z,22.10
2018-04-08T20:09:38.422Z,23.50
2018-04-08T20:12:09.640Z,24.63
2018-04-08T20:14:41.616Z,24.87
2018-04-08T20:17:12.961Z,23.90
2018-04-08T20:19:44.203Z,25.33
2018-04-08T20:22:16.498Z,24.00
2018-04-08T20:24:47.663Z,23.90
2018-04-08T20:27:18.941Z,22.37
2018-04-08T20:29:50.913Z,23.87
2018-04-08T20:32:22.898Z,24.00
2018-04-08T20:34:54.137Z,23.87
2018-04-08T20:37:25.324Z,24.00
2018-04-08T20:39:56.582Z,24.87
2018-04-08T20:42:27.881Z,23.90
2018-04-08T20:44:59.096Z,24.77
2018-04-08T20:47:31.055Z,26.87
2018-04-08T20:50:03.072Z,26.20
2018-04-08T20:52:34.268Z,24.90
2018-04-08T20:55:06.200Z,24.97
2018-04-08T20:57:37.434Z,25.43
2018-04-08T21:00:09.417Z,25.40
2018-04-08T21:02:41.423Z,26.30
2018-04-08T21:05:12.919Z,27.70
2018-04-08T21:07:44.169Z,27.77
2018-04-08T21:10:16.147Z,29.80
2018-04-08T21:12:47.389Z,26.63
2018-04-08T21:15:19.327Z,25.97
2018-04-08T21:17:50.542Z,25.90
2018-04-08T21:20:21.792Z,27.90
2018-04-08T21:22:53.024Z,27.77
2018-04-08T21:25:24.411Z,28.37
2018-04-08T21:27:56.341Z,28.53
2018-04-08T21:30:27.591Z,29.00
2018-04-08T21:32:59.012Z,27.93
2018-04-08T21:35:30.223Z,28.43
2018-04-08T21:38:01.443Z,26.87
2018-04-08T21:40:32.676Z,26.13
2018-04-08T21:43:03.950Z,26.93
2018-04-08T21:45:35.166Z,26.00
2018-04-08T21:48:06.400Z,26.47
2018-04-08T21:50:37.625Z,25.93
2018-04-08T21:53:08.877Z,24.33
2018-04-08T21:55:40.125Z,26.17
2018-04-08T21:58:11.316Z,25.87
2018-04-08T22:00:43.388Z,26.33
2018-04-08T22:03:15.377Z,27.00
2018-04-08T22:05:46.617Z,26.57
2018-04-08T22:08:17.837Z,26.93
2018-04-08T22:10:49.057Z,25.57
2018-04-08T22:13:20.309Z,26.63
2018-04-08T22:15:51.545Z,26.97
2018-04-08T22:18:22.835Z,27.10
2018-04-08T22:20:54.801Z,26.57
2018-04-08T22:23:26.187Z,25.83
2018-04-08T22:25:57.364Z,26.83
2018-04-08T22:28:29.314Z,28.53
2018-04-08T22:31:01.272Z,27.67
2018-04-08T22:33:32.742Z,29.20
2018-04-08T22:36:04.689Z,26.97
2018-04-08T22:38:35.939Z,27.87
2018-04-08T22:41:07.124Z,26.67
2018-04-08T22:43:38.516Z,27.97
2018-04-08T22:46:09.694Z,26.83
2018-04-08T22:48:40.900Z,27.07
2018-04-08T22:51:12.113Z,27.93
2018-04-08T22:53:43.319Z,28.97
2018-04-08T22:56:15.250Z,28.50
2018-04-08T22:58:46.572Z,31.00
2018-04-08T23:01:17.809Z,31.27
2018-04-08T23:03:48.982Z,31.33
2018-04-08T23:06:20.390Z,30.57
2018-04-08T23:08:51.942Z,30.80
2018-04-08T23:11:23.168Z,31.23
2018-04-08T23:13:54.423Z,29.43
2018-04-08T23:16:25.702Z,29.67
2018-04-08T23:18:56.920Z,31.33
2018-04-08T23:21:28.149Z,31.70
2018-04-08T23:23:59.568Z,32.23
2018-04-08T23:26:30.781Z,31.60
2018-04-08T23:29:02.058Z,30.37
2018-04-08T23:31:33.231Z,31.07
2018-04-08T23:34:04.482Z,32.27
2018-04-08T23:36:35.660Z,32.03
2018-04-08T23:39:06.977Z,30.43
2018-04-08T23:41:38.218Z,31.60
2018-04-08T23:44:09.512Z,30.50
2018-04-08T23:46:41.457Z,31.77
2018-04-08T23:49:12.710Z,29.00
2018-04-08T23:51:43.920Z,30.90
2018-04-08T23:54:15.149Z,29.67
2018-04-08T23:56:46.407Z,31.37
2018-04-08T23:59:17.630Z,29.97
